Pagina principale
METAR-TAF:

METAR-TAF

Aeroporti :

Aeroporto di Bologna-Borgo Panigale

Bologna, Italia

latitudine: 44-32N, longitudine: 011-18E, altezza: 36 m

Osservazione

Il bollettino è stato emesso 20 minuti fa, alle 04:20 UTC
Vento 2 kt da ovest/sud-ovest
Temperature 6°C
Umidità 93%
Pressione 1011 hPa
Visibilità 10 km o più

METAR: LIPE 300420Z AUTO 25002KT 9999 NCD 06/05 Q1011

Ora: 06:40 (04:40 UTC)

Previsione

Il bollettino è stato emesso 5 ore e 40 minuti fa, alle 23:00 UTC
Previsione valida dal 30 alle 00 UTC al 30 alle 24 UTC
Vento 6 kt da direzioni variabili
Visibilità 10 km o più
Poco nuvoloso ad un'altezza di 4000 ft
Temporaneamente
dal 30 alle 00 UTC al 30 alle 06 UTC
Visibilità: 3000 m
foschia
Temporaneamente
dal 30 alle 12 UTC al 30 alle 18 UTC
pioggia

TAF: LIPE 292300Z 3000/3024 VRB06KT 9999 FEW040 TEMPO 3000/3006 3000 BR TEMPO 3012/3018 RA

Osservazioni e previsioni meteorologiche di più di 4000 aeroporti (messaggi METAR e TAF).

Le stazioni disponibili sono rappresentate dai dischi gialli e rossi sulla carta.

Puntare il mouse per vedere il nome della stazione.

Clicca sopra per visualizzare le osservazioni e previsioni meteorologiche.

Per cambiare la mappa : fare clic sui pulsanti verdi con una croce nera per ingrandire, il pulsante verde con un trattino per diminuire, o sulla freccia verde per le mappe adiacenti.


METAR-TAF: